Terminal Aerodrome Forecast
Issued by NWS

Home | Current Version | Previous Version | Text Only | Print | Product List | Glossary On
Versions: 1 2 3 4 5 6 7 8 9 10 11 12 13 14 15
731
FTUS41 KPHI 232320
TAFMIV
TAF
KMIV 232320Z 2400/2424 24006KT P6SM SCT100
     FM240600 00000KT 5SM BR SCT002
     FM241100 VRB04KT P6SM SCT250
     FM241800 24006KT 6SM HZ SKC=

USA.gov is the U.S. government's official web portal to all federal, state and local government web resources and services.